Time;durP1;ratioP1;P1;durP2;ratioP2;P2;SDS_P1;SDS_P2;PMS_P1;PMS_P2;Temp;Humidity;BMP_temperature;BMP_pressure;BME280_temperature;BME280_humidity;BME280_pressure;Samples;Min_cycle;Max_cycle;Signal;HPM_P1;HPM_P2
2022/07/24 00:00:44;;;;;;;6.68;3.50;;;19.70;63.30;;;;;;9184601;19;20353;-65
2022/07/24 00:03:52;;;;;;;5.78;3.58;;;19.60;63.20;;;;;;9182135;19;20028;-67
2022/07/24 00:06:58;;;;;;;6.80;3.85;;;19.60;63.40;;;;;;9178042;19;20085;-65
2022/07/24 00:10:04;;;;;;;6.05;3.70;;;19.50;63.30;;;;;;9182034;19;20022;-66
2022/07/24 00:13:09;;;;;;;5.25;3.72;;;19.60;63.50;;;;;;9183198;19;20017;-64
2022/07/24 00:16:14;;;;;;;4.60;3.35;;;19.50;63.50;;;;;;9183179;19;20021;-65
2022/07/24 00:19:22;;;;;;;5.45;3.75;;;19.50;63.60;;;;;;9182546;19;20020;-64
2022/07/24 00:22:27;;;;;;;7.05;4.10;;;19.50;63.70;;;;;;9182055;19;20829;-65
2022/07/24 00:25:32;;;;;;;4.85;3.70;;;19.50;63.70;;;;;;9181842;19;20107;-67
2022/07/24 00:28:37;;;;;;;6.65;3.95;;;19.40;63.70;;;;;;9180876;19;20107;-65
2022/07/24 00:31:42;;;;;;;5.88;3.28;;;19.40;63.70;;;;;;9181658;19;20349;-64
2022/07/24 00:34:50;;;;;;;5.53;4.03;;;19.40;63.80;;;;;;9175071;19;20025;-65
2022/07/24 00:37:55;;;;;;;5.63;3.80;;;19.40;63.90;;;;;;9181175;19;20019;-64
2022/07/24 00:41:00;;;;;;;6.05;3.63;;;19.40;63.90;;;;;;9182145;19;20018;-65
2022/07/24 00:44:08;;;;;;;6.07;3.38;;;19.30;63.90;;;;;;9183085;19;20342;-65
2022/07/24 00:47:13;;;;;;;6.95;3.88;;;19.30;63.90;;;;;;9179341;19;20035;-65
2022/07/24 00:50:21;;;;;;;7.40;4.03;;;19.30;64.00;;;;;;9181798;19;20020;-64
2022/07/24 00:53:26;;;;;;;5.63;3.85;;;19.20;64.10;;;;;;9179909;19;20010;-65
2022/07/24 00:56:31;;;;;;;8.60;4.25;;;19.20;64.70;;;;;;9179805;19;20034;-64
2022/07/24 00:59:36;;;;;;;6.00;3.33;;;19.20;64.10;;;;;;9178321;19;20029;-64
2022/07/24 01:02:42;;;;;;;5.32;4.03;;;19.20;64.20;;;;;;9181490;19;20010;-64
2022/07/24 01:05:50;;;;;;;6.25;3.40;;;19.10;64.20;;;;;;9171658;19;20014;-65
2022/07/24 01:08:55;;;;;;;5.25;4.00;;;19.10;64.40;;;;;;9177518;19;20025;-66
2022/07/24 01:12:01;;;;;;;4.63;3.50;;;19.10;64.40;;;;;;9176946;19;20111;-65
2022/07/24 01:15:08;;;;;;;5.35;3.83;;;19.10;64.40;;;;;;9177050;19;20014;-65
2022/07/24 01:18:14;;;;;;;7.43;4.30;;;19.00;64.50;;;;;;9178197;19;20022;-65
2022/07/24 01:21:22;;;;;;;5.32;3.78;;;19.00;64.60;;;;;;9179389;19;20022;-65
2022/07/24 01:24:27;;;;;;;7.25;4.28;;;19.00;64.70;;;;;;9179692;19;20015;-65
2022/07/24 01:27:32;;;;;;;7.53;4.30;;;18.90;64.60;;;;;;9177719;19;20025;-65
2022/07/24 01:30:37;;;;;;;5.22;3.47;;;18.90;64.70;;;;;;9181097;19;20018;-65
2022/07/24 01:33:42;;;;;;;6.72;4.07;;;18.90;64.80;;;;;;9179866;19;20007;-65
2022/07/24 01:36:50;;;;;;;4.45;3.03;;;18.90;64.80;;;;;;9179872;19;20026;-65
2022/07/24 01:39:56;;;;;;;5.88;4.35;;;18.90;65.00;;;;;;9179416;19;20006;-65
2022/07/24 01:43:01;;;;;;;8.93;4.22;;;18.80;64.90;;;;;;9178388;19;20468;-65
2022/07/24 01:46:06;;;;;;;8.25;3.90;;;18.80;64.90;;;;;;9179663;19;20017;-64
2022/07/24 01:49:11;;;;;;;6.68;4.40;;;18.80;65.00;;;;;;9178576;19;20011;-64
2022/07/24 01:52:28;;;;;;;;;;;18.80;65.10;;;;;;9181074;19;20034;-65
2022/07/24 01:55:33;;;;;;;5.72;3.90;;;18.80;64.90;;;;;;9176080;19;19922;-65
2022/07/24 01:58:39;;;;;;;8.35;4.25;;;18.70;64.90;;;;;;9179836;19;20015;-65
2022/07/24 02:01:44;;;;;;;5.22;4.07;;;18.70;65.00;;;;;;9175597;19;20102;-66
2022/07/24 02:04:49;;;;;;;5.43;3.90;;;18.70;65.20;;;;;;9178409;19;20018;-65
2022/07/24 02:08:01;;;;;;;4.70;3.40;;;18.70;65.20;;;;;;9177129;19;20026;-66
2022/07/24 02:11:06;;;;;;;7.10;3.67;;;18.70;65.40;;;;;;9175369;19;20025;-66
2022/07/24 02:14:11;;;;;;;4.82;3.58;;;18.60;65.20;;;;;;9178429;19;20045;-65
2022/07/24 02:17:16;;;;;;;7.00;4.07;;;18.60;65.30;;;;;;9178661;19;20045;-65
2022/07/24 02:20:23;;;;;;;6.60;3.85;;;18.60;65.40;;;;;;9178827;19;20014;-66
2022/07/24 02:23:30;;;;;;;7.28;4.25;;;18.60;65.50;;;;;;9177887;19;20415;-64
2022/07/24 02:26:35;;;;;;;8.73;3.60;;;18.60;65.50;;;;;;9179958;19;20015;-64
2022/07/24 02:29:41;;;;;;;5.47;3.80;;;18.60;65.60;;;;;;9179321;19;20037;-65
2022/07/24 02:32:46;;;;;;;5.80;3.55;;;18.50;65.60;;;;;;9178754;19;20353;-65
2022/07/24 02:35:51;;;;;;;4.97;3.67;;;18.50;65.60;;;;;;9173109;19;20021;-64
2022/07/24 02:38:59;;;;;;;4.60;3.47;;;18.50;65.70;;;;;;9177644;19;20028;-65
2022/07/24 02:42:04;;;;;;;5.03;3.80;;;18.50;65.80;;;;;;9176999;19;20022;-65
2022/07/24 02:45:10;;;;;;;4.93;3.13;;;18.40;65.80;;;;;;9176513;19;20034;-65
2022/07/24 02:48:15;;;;;;;5.82;3.55;;;18.50;65.80;;;;;;9175928;19;20015;-65
2022/07/24 02:51:20;;;;;;;8.15;4.05;;;18.50;65.80;;;;;;9177224;19;20030;-64
2022/07/24 02:54:28;;;;;;;5.75;3.75;;;18.40;65.90;;;;;;9178362;19;20010;-65
2022/07/24 02:57:33;;;;;;;8.13;4.38;;;18.40;65.90;;;;;;9175646;19;20026;-65
2022/07/24 03:00:38;;;;;;;7.50;3.65;;;18.40;65.90;;;;;;9175681;19;20018;-64
2022/07/24 03:03:43;;;;;;;5.22;3.70;;;18.40;66.00;;;;;;9175965;19;20368;-64
2022/07/24 03:06:48;;;;;;;5.55;3.35;;;18.40;66.00;;;;;;9172726;19;20015;-65
2022/07/24 03:09:56;;;;;;;6.35;4.00;;;18.40;66.10;;;;;;9176787;19;20018;-65
2022/07/24 03:13:01;;;;;;;6.82;3.67;;;18.40;66.20;;;;;;9177053;19;20028;-65
2022/07/24 03:16:07;;;;;;;6.30;3.83;;;18.30;66.20;;;;;;9175644;19;20015;-65
2022/07/24 03:19:12;;;;;;;5.72;3.42;;;18.30;66.30;;;;;;9176781;19;20010;-64
2022/07/24 03:22:18;;;;;;;7.15;4.00;;;18.30;66.20;;;;;;9179080;19;20011;-65
2022/07/24 03:25:26;;;;;;;6.70;3.55;;;18.30;66.30;;;;;;9186063;19;20014;-66
2022/07/24 03:28:32;;;;;;;5.63;4.00;;;18.30;66.40;;;;;;9183520;19;20015;-65
2022/07/24 03:31:37;;;;;;;5.25;3.47;;;18.20;66.40;;;;;;9185196;19;20011;-66
2022/07/24 03:34:42;;;;;;;9.07;4.15;;;18.20;67.00;;;;;;9184975;19;20022;-65
2022/07/24 03:37:47;;;;;;;4.97;3.47;;;18.20;66.50;;;;;;9183106;19;20021;-64
2022/07/24 03:40:55;;;;;;;5.32;3.50;;;18.20;66.50;;;;;;9184177;19;20730;-67
2022/07/24 03:44:00;;;;;;;4.03;3.60;;;18.20;66.70;;;;;;9183173;19;20028;-65
2022/07/24 03:47:05;;;;;;;5.85;3.72;;;18.10;66.60;;;;;;9184929;19;20011;-64
2022/07/24 03:50:11;;;;;;;4.18;3.35;;;18.10;66.70;;;;;;9184693;19;20022;-65
2022/07/24 03:53:20;;;;;;;5.03;3.67;;;18.10;66.70;;;;;;9182537;19;20077;-65
2022/07/24 03:56:28;;;;;;;5.15;3.70;;;18.10;66.80;;;;;;9181401;19;20010;-67
2022/07/24 03:59:33;;;;;;;7.10;3.70;;;18.10;67.00;;;;;;9182661;19;20018;-65
2022/07/24 04:02:38;;;;;;;5.10;3.70;;;18.10;66.90;;;;;;9180869;19;20078;-65
2022/07/24 04:05:43;;;;;;;5.30;3.50;;;18.00;66.90;;;;;;9173532;19;20015;-65
2022/07/24 04:08:55;;;;;;;6.15;4.40;;;18.00;67.00;;;;;;9181484;19;20007;-65
2022/07/24 04:12:03;;;;;;;12.63;4.13;;;18.00;67.00;;;;;;9181769;19;20578;-64
2022/07/24 04:15:09;;;;;;;5.47;3.90;;;18.00;67.20;;;;;;9179522;19;20372;-65
2022/07/24 04:18:14;;;;;;;6.47;3.83;;;18.00;67.20;;;;;;9179597;19;20919;-65
2022/07/24 04:21:19;;;;;;;4.53;4.05;;;18.00;67.20;;;;;;9180939;19;20014;-65
2022/07/24 04:24:24;;;;;;;6.32;4.50;;;18.00;67.30;;;;;;9179494;19;20019;-64
2022/07/24 04:27:32;;;;;;;5.20;4.03;;;18.10;67.40;;;;;;9179793;19;20007;-63
2022/07/24 04:30:37;;;;;;;6.32;3.97;;;18.10;67.50;;;;;;9180935;19;20011;-64
2022/07/24 04:33:44;;;;;;;6.68;4.30;;;18.10;67.50;;;;;;9178789;19;20526;-65
2022/07/24 04:36:49;;;;;;;8.35;4.28;;;18.10;67.50;;;;;;9178031;19;20102;-64
2022/07/24 04:39:54;;;;;;;7.07;4.13;;;18.10;67.60;;;;;;9181589;19;20014;-65
2022/07/24 04:43:02;;;;;;;6.93;3.83;;;18.10;67.60;;;;;;9179318;19;20123;-64
2022/07/24 04:46:07;;;;;;;7.18;4.25;;;18.10;67.70;;;;;;9177749;19;20387;-65
2022/07/24 04:49:12;;;;;;;6.75;4.07;;;18.10;67.70;;;;;;9179566;19;20066;-66
2022/07/24 04:52:18;;;;;;;6.53;4.35;;;18.10;67.80;;;;;;9179954;19;20018;-64
2022/07/24 04:55:23;;;;;;;10.38;4.43;;;18.10;67.80;;;;;;9180270;19;20037;-64
2022/07/24 04:58:30;;;;;;;7.65;4.93;;;18.10;67.80;;;;;;9178933;19;20010;-64
2022/07/24 05:01:36;;;;;;;12.63;5.30;;;18.10;68.00;;;;;;9180399;19;20082;-64
2022/07/24 05:04:41;;;;;;;9.73;5.35;;;18.20;68.00;;;;;;9177881;19;20121;-64
2022/07/24 05:07:46;;;;;;;7.72;5.07;;;18.20;68.00;;;;;;9173867;19;20022;-65
2022/07/24 05:10:51;;;;;;;9.52;4.88;;;18.20;68.00;;;;;;9178574;19;20022;-66
2022/07/24 05:13:58;;;;;;;7.13;5.32;;;18.20;68.00;;;;;;9179988;19;20030;-64
2022/07/24 05:17:03;;;;;;;11.60;5.43;;;18.20;68.10;;;;;;9177945;19;20030;-65
2022/07/24 05:20:10;;;;;;;10.05;5.72;;;18.20;68.10;;;;;;9178604;19;20014;-65
2022/07/24 05:23:18;;;;;;;7.28;5.28;;;18.30;68.20;;;;;;9179465;19;20021;-65
2022/07/24 05:26:23;;;;;;;9.68;6.10;;;18.30;68.20;;;;;;9179580;19;20059;-64
2022/07/24 05:29:31;;;;;;;12.07;6.00;;;18.30;68.20;;;;;;9178286;19;20019;-65
2022/07/24 05:32:36;;;;;;;13.48;6.18;;;18.30;68.40;;;;;;9177803;19;20026;-65
2022/07/24 05:35:41;;;;;;;9.00;6.40;;;18.40;68.40;;;;;;9175729;19;20018;-65
2022/07/24 05:38:52;;;;;;;14.82;6.75;;;18.40;68.40;;;;;;9178196;19;20019;-65
2022/07/24 05:41:57;;;;;;;15.65;6.82;;;18.40;68.50;;;;;;9178399;19;20011;-64
2022/07/24 05:45:06;;;;;;;12.32;6.22;;;18.50;68.60;;;;;;9177687;19;20018;-64
2022/07/24 05:48:11;;;;;;;13.35;6.53;;;18.60;68.80;;;;;;9174548;19;20022;-64
2022/07/24 05:51:16;;;;;;;12.48;6.70;;;18.70;68.80;;;;;;9176393;19;20021;-65
2022/07/24 05:54:21;;;;;;;15.77;6.88;;;18.80;68.80;;;;;;9177104;19;20026;-64
2022/07/24 05:57:26;;;;;;;13.50;6.85;;;18.90;68.90;;;;;;9175967;19;20357;-64
2022/07/24 06:00:34;;;;;;;10.05;6.82;;;19.10;68.90;;;;;;9177699;19;20010;-64
2022/07/24 06:03:39;;;;;;;12.13;7.43;;;19.30;69.60;;;;;;9175526;19;20372;-66
2022/07/24 06:06:44;;;;;;;10.07;6.80;;;19.40;68.90;;;;;;9172181;19;20020;-64
2022/07/24 06:09:51;;;;;;;11.82;7.25;;;19.60;68.90;;;;;;9176627;19;20025;-65
2022/07/24 06:12:57;;;;;;;11.82;7.40;;;19.70;68.80;;;;;;9178541;19;20366;-64
2022/07/24 06:16:06;;;;;;;10.15;7.28;;;20.00;68.70;;;;;;9174203;19;20052;-64
2022/07/24 06:19:11;;;;;;;14.63;7.53;;;20.10;68.60;;;;;;9178404;19;20041;-65
2022/07/24 06:22:16;;;;;;;12.90;7.22;;;20.40;68.60;;;;;;9176686;19;20018;-65
2022/07/24 06:25:21;;;;;;;14.55;7.05;;;20.50;68.30;;;;;;9173581;19;20022;-65
2022/07/24 06:28:26;;;;;;;12.13;8.10;;;20.70;68.20;;;;;;9174721;19;20010;-65
2022/07/24 06:31:34;;;;;;;14.68;7.72;;;20.90;68.00;;;;;;9175144;19;20010;-64
2022/07/24 06:34:39;;;;;;;13.65;8.63;;;21.20;67.90;;;;;;9171161;19;20027;-65
2022/07/24 06:37:44;;;;;;;14.40;7.68;;;21.40;67.80;;;;;;9172086;19;20033;-63
2022/07/24 06:40:51;;;;;;;13.77;7.75;;;21.60;67.50;;;;;;9173882;19;20018;-64
2022/07/24 06:43:56;;;;;;;16.08;8.25;;;21.80;67.40;;;;;;9170797;19;20479;-66
2022/07/24 06:47:05;;;;;;;12.30;7.93;;;22.00;67.20;;;;;;9174972;19;20014;-65
2022/07/24 06:50:12;;;;;;;15.32;7.88;;;22.10;67.00;;;;;;9174887;19;20523;-64
2022/07/24 06:53:17;;;;;;;15.25;7.68;;;22.30;67.00;;;;;;9172788;19;20330;-66
2022/07/24 06:56:22;;;;;;;12.55;8.10;;;22.50;67.30;;;;;;9174993;19;20021;-66
2022/07/24 06:59:27;;;;;;;13.80;7.47;;;22.70;66.60;;;;;;9184039;19;20375;-64
2022/07/24 07:02:35;;;;;;;16.45;8.20;;;22.90;66.40;;;;;;9182014;19;20456;-65
2022/07/24 07:05:40;;;;;;;14.02;8.02;;;23.00;66.20;;;;;;9174783;19;20022;-65
2022/07/24 07:08:45;;;;;;;15.75;8.73;;;23.20;66.10;;;;;;9182668;19;20455;-65
2022/07/24 07:11:50;;;;;;;16.85;8.80;;;23.40;65.90;;;;;;9184246;19;20029;-65
2022/07/24 07:14:58;;;;;;;17.20;8.98;;;23.60;65.70;;;;;;9182206;19;20044;-65
2022/07/24 07:18:06;;;;;;;17.27;9.10;;;23.70;65.60;;;;;;9181839;19;20022;-65
2022/07/24 07:21:11;;;;;;;15.07;9.65;;;23.90;65.50;;;;;;9183033;19;20022;-65
2022/07/24 07:24:16;;;;;;;13.25;8.70;;;24.00;65.30;;;;;;9184902;19;20014;-65
2022/07/24 07:27:21;;;;;;;12.40;8.70;;;24.20;65.10;;;;;;9184243;19;20019;-65
2022/07/24 07:30:26;;;;;;;13.60;9.18;;;24.40;65.00;;;;;;9183340;19;20015;-65
2022/07/24 07:33:33;;;;;;;18.58;9.43;;;24.60;64.70;;;;;;9184787;19;20010;-65
2022/07/24 07:36:38;;;;;;;14.18;8.77;;;24.80;64.40;;;;;;9182873;19;20014;-65
2022/07/24 07:39:44;;;;;;;13.38;8.35;;;24.90;64.30;;;;;;9180721;19;20030;-65
2022/07/24 07:42:49;;;;;;;18.52;9.90;;;25.10;64.10;;;;;;9181872;19;20792;-65
2022/07/24 07:45:55;;;;;;;14.38;8.85;;;25.30;63.90;;;;;;9182696;19;20010;-65
2022/07/24 07:49:02;;;;;;;19.40;9.25;;;25.40;63.60;;;;;;9184904;19;20015;-66
2022/07/24 07:52:08;;;;;;;19.55;10.65;;;25.50;63.40;;;;;;9182484;19;20015;-65
2022/07/24 07:55:13;;;;;;;17.10;10.32;;;25.70;63.30;;;;;;9183123;19;20353;-66
2022/07/24 07:58:18;;;;;;;14.38;8.80;;;25.90;63.10;;;;;;9182228;19;20013;-66
2022/07/24 08:01:23;;;;;;;21.15;11.20;;;26.00;62.80;;;;;;9182696;19;20011;-66
2022/07/24 08:04:31;;;;;;;14.10;8.90;;;26.10;62.60;;;;;;9179267;19;20028;-65
2022/07/24 08:07:36;;;;;;;21.95;9.38;;;26.30;62.40;;;;;;9176792;19;20022;-65
2022/07/24 08:10:41;;;;;;;22.48;11.35;;;26.40;62.40;;;;;;9180749;19;20025;-66
2022/07/24 08:13:47;;;;;;;13.32;9.98;;;26.50;62.20;;;;;;9182484;19;20479;-70
2022/07/24 08:16:52;;;;;;;19.65;11.45;;;26.70;62.10;;;;;;9181872;19;20014;-72
2022/07/24 08:20:00;;;;;;;19.45;10.40;;;26.80;61.90;;;;;;9181477;19;20018;-71
2022/07/24 08:23:05;;;;;;;18.83;10.60;;;26.90;61.60;;;;;;9182094;19;20376;-70
2022/07/24 08:26:11;;;;;;;19.00;12.65;;;27.00;61.50;;;;;;9181650;19;20021;-70
2022/07/24 08:29:16;;;;;;;18.92;10.20;;;27.20;61.40;;;;;;9180929;19;20021;-68
2022/07/24 08:32:24;;;;;;;18.42;9.73;;;27.30;61.20;;;;;;9181886;19;20507;-71
2022/07/24 08:35:31;;;;;;;16.25;10.73;;;27.40;61.10;;;;;;9180518;19;20014;-70
2022/07/24 08:38:37;;;;;;;21.73;10.38;;;27.50;60.90;;;;;;9179872;19;20007;-71
2022/07/24 08:41:43;;;;;;;16.00;10.00;;;27.60;60.80;;;;;;9183735;19;20341;-71
2022/07/24 08:44:49;;;;;;;22.00;10.35;;;27.80;60.60;;;;;;9183164;19;20025;-68
2022/07/24 08:47:54;;;;;;;16.52;9.07;;;27.90;60.30;;;;;;9180354;19;20018;-71
2022/07/24 08:51:03;;;;;;;15.82;9.15;;;28.00;60.10;;;;;;9180752;19;20018;-72
2022/07/24 08:54:08;;;;;;;16.15;8.13;;;28.10;59.70;;;;;;9181708;19;20018;-71
2022/07/24 08:57:14;;;;;;;22.85;10.32;;;28.20;59.70;;;;;;9182953;19;20349;-70
2022/07/24 09:00:20;;;;;;;16.65;8.18;;;28.30;59.50;;;;;;9182272;19;20026;-69
2022/07/24 09:03:25;;;;;;;11.88;7.55;;;28.50;59.30;;;;;;9181943;19;20014;-70
2022/07/24 09:06:33;;;;;;;12.32;7.03;;;28.60;59.00;;;;;;9175455;19;20467;-67
2022/07/24 09:09:40;;;;;;;14.43;6.72;;;28.60;58.70;;;;;;9180083;19;20395;-68
2022/07/24 09:12:47;;;;;;;14.20;6.72;;;28.80;58.50;;;;;;9179551;19;20484;-70
2022/07/24 09:15:55;;;;;;;9.55;5.80;;;28.90;58.20;;;;;;9177653;19;20021;-67
2022/07/24 09:19:08;;;;;;;12.43;5.97;;;29.00;57.90;;;;;;9179848;19;20728;-70
2022/07/24 09:22:40;;;;;;;11.27;6.03;;;29.10;57.40;;;;;;9172888;19;20086;-70
2022/07/24 09:25:53;;;;;;;9.48;4.68;;;29.30;57.40;;;;;;9174010;19;20413;-69
2022/07/24 09:28:58;;;;;;;11.40;5.63;;;29.30;57.20;;;;;;9173902;19;20011;-68
2022/07/24 09:32:04;;;;;;;8.27;4.38;;;29.40;57.20;;;;;;9172079;19;20022;-68
2022/07/24 09:35:11;;;;;;;5.72;4.25;;;29.50;57.00;;;;;;9173142;19;20018;-67
2022/07/24 09:38:21;;;;;;;6.68;4.40;;;29.60;56.80;;;;;;9172763;19;20024;-68
2022/07/24 09:41:27;;;;;;;13.15;4.75;;;29.70;56.40;;;;;;9175206;19;20021;-68
2022/07/24 09:44:33;;;;;;;10.55;3.47;;;29.80;56.30;;;;;;9171906;19;20015;-69
2022/07/24 09:47:39;;;;;;;7.35;3.38;;;29.90;56.10;;;;;;9172524;19;20010;-70
2022/07/24 09:50:52;;;;;;;9.32;3.17;;;30.00;55.80;;;;;;9172264;19;20028;-68
2022/07/24 09:54:01;;;;;;;10.97;3.47;;;30.10;55.10;;;;;;9174485;19;20054;-69
2022/07/24 09:57:21;;;;;;;9.15;3.28;;;30.20;55.20;;;;;;9171475;19;20029;-71
2022/07/24 10:00:28;;;;;;;5.40;3.05;;;30.30;54.80;;;;;;9169356;19;20442;-70
2022/07/24 10:03:34;;;;;;;3.63;2.03;;;30.30;55.00;;;;;;9172355;19;20101;-71
2022/07/24 10:06:41;;;;;;;5.45;2.65;;;30.40;54.80;;;;;;9168038;19;20018;-72
2022/07/24 10:09:51;;;;;;;5.43;2.45;;;30.50;54.50;;;;;;9174055;19;20022;-68
2022/07/24 10:12:56;;;;;;;5.43;2.63;;;30.60;54.20;;;;;;9172212;19;20753;-71
2022/07/24 10:16:31;;;;;;;7.70;2.35;;;30.60;54.00;;;;;;9173074;19;20015;-68
2022/07/24 10:19:45;;;;;;;2.35;1.58;;;30.70;53.50;;;;;;9167643;19;20081;-70
2022/07/24 10:23:03;;;;;;;1.55;1.45;;;30.70;53.40;;;;;;9171034;19;20027;-70
2022/07/24 10:26:13;;;;;;;3.38;1.65;;;30.90;53.20;;;;;;9170610;19;20018;-68
2022/07/24 10:29:21;;;;;;;4.78;1.88;;;30.90;53.10;;;;;;9166832;19;20010;-72
2022/07/24 10:32:28;;;;;;;2.65;1.70;;;31.00;52.80;;;;;;9169261;19;20018;-70
2022/07/24 10:35:39;;;;;;;9.15;1.80;;;31.00;52.60;;;;;;9164786;19;20662;-68
2022/07/24 10:38:51;;;;;;;2.47;2.08;;;31.10;52.40;;;;;;9174558;19;20047;-71
2022/07/24 10:42:08;;;;;;;3.50;1.83;;;31.20;52.10;;;;;;9171120;19;20015;-68
2022/07/24 10:45:18;;;;;;;4.75;2.05;;;31.30;51.80;;;;;;9174449;19;20014;-69
2022/07/24 10:48:35;;;;;;;3.15;1.92;;;31.40;52.00;;;;;;9175312;19;20099;-69
2022/07/24 10:52:01;;;;;;;3.08;1.67;;;31.50;51.70;;;;;;9177053;19;20018;-69
2022/07/24 10:55:28;;;;;;;6.15;1.80;;;31.60;51.50;;;;;;9174393;19;20038;-68
2022/07/24 10:58:54;;;;;;;4.53;1.80;;;31.70;51.40;;;;;;9174909;19;20022;-71
2022/07/24 11:02:19;;;;;;;2.58;1.80;;;31.80;51.20;;;;;;9175679;19;20025;-72
2022/07/24 11:05:30;;;;;;;2.03;1.60;;;31.90;51.30;;;;;;9169940;19;20023;-70
2022/07/24 11:08:41;;;;;;;1.75;1.45;;;32.00;51.60;;;;;;9176291;19;20011;-69
2022/07/24 11:12:08;;;;;;;3.70;1.52;;;32.10;50.70;;;;;;9176425;19;20018;-69
2022/07/24 11:18:45;;;;;;;4.10;1.80;;;32.20;50.60;;;;;;9176468;19;20096;-70
2022/07/24 11:22:13;;;;;;;3.28;1.50;;;32.30;50.50;;;;;;9175019;19;21623;-69
2022/07/24 11:25:21;;;;;;;5.95;2.00;;;32.30;50.10;;;;;;9172613;19;20022;-70
2022/07/24 11:28:26;;;;;;;3.00;1.70;;;32.40;50.20;;;;;;9177907;19;20011;-70
2022/07/24 11:31:35;;;;;;;2.38;1.45;;;32.50;50.10;;;;;;9167191;19;20029;-70
2022/07/24 11:34:40;;;;;;;2.30;1.40;;;32.50;49.60;;;;;;9169074;19;20026;-68
2022/07/24 11:37:47;;;;;;;2.22;1.38;;;32.60;49.60;;;;;;9172016;19;20015;-68
2022/07/24 11:40:52;;;;;;;2.38;1.52;;;32.70;49.50;;;;;;9167004;19;20014;-67
2022/07/24 11:43:58;;;;;;;6.43;1.60;;;32.70;49.60;;;;;;9175465;19;20010;-69
2022/07/24 11:47:10;;;;;;;3.33;1.60;;;32.80;49.40;;;;;;9180382;19;20030;-70
2022/07/24 11:50:16;;;;;;;1.90;1.42;;;32.80;49.20;;;;;;9176544;19;20652;-66
2022/07/24 11:53:21;;;;;;;2.30;1.50;;;32.90;49.20;;;;;;9175196;19;20680;-68
2022/07/24 11:56:34;;;;;;;1.60;1.45;;;33.00;49.00;;;;;;9169603;19;20014;-69
2022/07/24 11:59:39;;;;;;;2.33;1.40;;;33.00;48.90;;;;;;9173994;19;20021;-71
2022/07/24 12:02:51;;;;;;;5.25;1.55;;;33.00;48.90;;;;;;9174999;19;20010;-69
2022/07/24 12:05:57;;;;;;;1.70;1.42;;;33.10;48.50;;;;;;9167236;19;20018;-67
2022/07/24 12:09:09;;;;;;;2.47;1.55;;;33.20;48.70;;;;;;9172883;19;20078;-67
2022/07/24 12:12:24;;;;;;;2.30;1.40;;;33.20;48.10;;;;;;9173336;19;20021;-66
2022/07/24 12:15:29;;;;;;;1.55;1.45;;;33.20;48.10;;;;;;9168244;19;20018;-67
2022/07/24 12:18:37;;;;;;;3.58;1.77;;;33.20;48.20;;;;;;9171992;19;20022;-67
2022/07/24 12:21:44;;;;;;;2.00;1.50;;;33.30;48.00;;;;;;9168753;19;20025;-67
2022/07/24 12:24:49;;;;;;;10.70;1.50;;;33.30;48.00;;;;;;9169426;19;20029;-68
2022/07/24 12:28:06;;;;;;;3.47;1.38;;;33.30;48.00;;;;;;9172772;19;20022;-68
2022/07/24 12:31:11;;;;;;;2.08;1.58;;;33.30;47.50;;;;;;9169449;19;20014;-69
2022/07/24 12:34:19;;;;;;;2.17;1.38;;;33.40;47.80;;;;;;9164539;19;20052;-68
2022/07/24 12:37:25;;;;;;;3.20;1.60;;;33.40;47.40;;;;;;9169490;19;20853;-71
2022/07/24 12:40:36;;;;;;;2.90;1.45;;;33.40;47.40;;;;;;9169078;19;20014;-68
2022/07/24 12:43:50;;;;;;;3.90;1.70;;;33.40;47.20;;;;;;9170510;19;20018;-69
2022/07/24 12:47:00;;;;;;;1.92;1.45;;;33.40;47.00;;;;;;9169815;19;20365;-71
2022/07/24 12:50:17;;;;;;;5.72;1.23;;;33.50;47.20;;;;;;9159737;19;20021;-71
2022/07/24 12:53:44;;;;;;;2.70;1.42;;;33.50;47.00;;;;;;9168416;19;20039;-70
2022/07/24 12:56:50;;;;;;;1.95;1.42;;;33.50;47.10;;;;;;9166567;19;20015;-67
2022/07/24 13:00:02;;;;;;;4.97;1.77;;;33.50;47.00;;;;;;9167003;19;20022;-67
2022/07/24 13:03:07;;;;;;;1.83;1.50;;;33.50;46.70;;;;;;9170268;19;20010;-67
2022/07/24 13:06:17;;;;;;;2.60;1.50;;;33.50;46.90;;;;;;9164945;19;20024;-68
2022/07/24 13:09:24;;;;;;;3.00;1.40;;;33.50;46.70;;;;;;9173850;19;20014;-67
2022/07/24 13:12:29;;;;;;;2.78;1.63;;;33.50;46.70;;;;;;9173755;19;20018;-68
2022/07/24 13:15:34;;;;;;;1.75;1.50;;;33.50;46.60;;;;;;9167709;19;20011;-68
2022/07/24 13:18:42;;;;;;;2.05;1.50;;;33.50;46.60;;;;;;9167905;19;20025;-67
2022/07/24 13:21:49;;;;;;;4.38;1.10;;;33.50;46.60;;;;;;9168789;19;20015;-68
2022/07/24 13:24:54;;;;;;;2.50;1.42;;;33.50;46.50;;;;;;9173541;19;20019;-68
2022/07/24 13:27:59;;;;;;;1.92;1.30;;;33.50;46.60;;;;;;9172509;19;20056;-72
2022/07/24 13:31:19;;;;;;;1.25;1.00;;;33.40;46.40;;;;;;9173100;19;20529;-67
2022/07/24 13:34:25;;;;;;;1.90;1.30;;;33.50;46.50;;;;;;9168982;19;20018;-69
2022/07/24 13:37:34;;;;;;;2.72;1.20;;;33.40;46.50;;;;;;9169408;19;20014;-68
2022/07/24 13:40:39;;;;;;;1.63;1.20;;;33.40;46.30;;;;;;9167647;19;20045;-66
2022/07/24 13:43:44;;;;;;;4.30;1.42;;;33.40;46.50;;;;;;9170949;19;20664;-68
2022/07/24 13:46:49;;;;;;;5.15;1.73;;;33.40;46.40;;;;;;9173317;19;20510;-67
2022/07/24 13:49:54;;;;;;;2.30;1.55;;;33.40;46.40;;;;;;9171240;19;20367;-67
2022/07/24 13:53:02;;;;;;;2.40;1.52;;;33.40;46.50;;;;;;9168033;19;20019;-69
2022/07/24 13:56:08;;;;;;;1.35;1.25;;;33.40;46.30;;;;;;9167129;19;20018;-66
2022/07/24 13:59:13;;;;;;;3.92;1.80;;;33.40;46.50;;;;;;9171922;19;20027;-68
2022/07/24 14:02:18;;;;;;;1.40;1.30;;;33.40;46.40;;;;;;9165585;19;20025;-68
2022/07/24 14:05:23;;;;;;;4.68;1.33;;;33.40;46.40;;;;;;9159690;19;20018;-70
2022/07/24 14:08:31;;;;;;;1.30;1.10;;;33.40;46.40;;;;;;9166541;19;20010;-70
2022/07/24 14:11:36;;;;;;;2.25;1.02;;;33.40;46.30;;;;;;9166665;19;20010;-68
2022/07/24 14:14:42;;;;;;;2.55;1.33;;;33.40;46.30;;;;;;9169014;19;20018;-68
2022/07/24 14:17:47;;;;;;;8.50;1.08;;;33.40;46.20;;;;;;9167674;19;20026;-67
2022/07/24 14:20:52;;;;;;;1.65;1.30;;;33.40;46.20;;;;;;9161850;19;20607;-66
2022/07/24 14:24:00;;;;;;;1.40;1.15;;;33.40;46.30;;;;;;9168744;19;20018;-67
2022/07/24 14:27:05;;;;;;;1.55;1.25;;;33.40;46.30;;;;;;9167205;19;20631;-66
2022/07/24 14:30:12;;;;;;;1.10;1.00;;;33.40;46.30;;;;;;9169341;19;20027;-66
2022/07/24 14:33:17;;;;;;;2.15;1.30;;;33.40;46.30;;;;;;9168981;19;20014;-67
2022/07/24 14:36:22;;;;;;;4.43;1.38;;;33.30;46.20;;;;;;9168508;19;20019;-66
2022/07/24 14:39:30;;;;;;;2.22;1.15;;;33.30;46.20;;;;;;9165419;19;20018;-66
2022/07/24 14:42:36;;;;;;;1.48;1.20;;;33.30;46.30;;;;;;9165562;19;20823;-66
2022/07/24 14:45:41;;;;;;;3.08;1.15;;;33.30;46.30;;;;;;9168148;19;20014;-65
2022/07/24 14:48:46;;;;;;;1.50;1.20;;;33.20;46.20;;;;;;9168020;19;20030;-66
2022/07/24 14:51:51;;;;;;;2.40;1.23;;;33.20;46.20;;;;;;9163624;19;20022;-67
2022/07/24 14:54:59;;;;;;;1.70;1.35;;;33.20;46.30;;;;;;9161024;19;20487;-68
2022/07/24 14:58:04;;;;;;;5.85;1.58;;;33.20;46.20;;;;;;9158135;19;20021;-68
2022/07/24 15:01:09;;;;;;;1.52;1.27;;;33.20;46.30;;;;;;9158484;19;20018;-69
2022/07/24 15:04:14;;;;;;;1.95;1.48;;;33.20;46.30;;;;;;9162615;19;20499;-69
2022/07/24 15:07:20;;;;;;;1.95;1.65;;;33.10;46.30;;;;;;9152630;19;20019;-68
2022/07/24 15:10:30;;;;;;;2.22;1.40;;;33.10;46.30;;;;;;9149599;19;20019;-69
2022/07/24 15:13:36;;;;;;;5.10;1.45;;;33.10;47.00;;;;;;9159981;19;20011;-68
2022/07/24 15:16:42;;;;;;;2.00;1.10;;;33.10;46.40;;;;;;9161029;19;20014;-70
2022/07/24 15:19:47;;;;;;;1.77;1.40;;;33.00;46.40;;;;;;9168361;19;20054;-70
2022/07/24 15:22:52;;;;;;;3.78;1.48;;;33.00;46.50;;;;;;9173778;19;20018;-68
2022/07/24 15:26:00;;;;;;;1.35;1.25;;;33.00;46.40;;;;;;9178252;19;20037;-70
2022/07/24 15:29:05;;;;;;;1.42;1.20;;;33.00;46.40;;;;;;9178287;19;20011;-72
2022/07/24 15:32:10;;;;;;;2.03;1.35;;;33.00;46.40;;;;;;9175082;19;20388;-68
2022/07/24 15:35:16;;;;;;;2.90;1.10;;;33.00;46.40;;;;;;9166067;19;20022;-68
2022/07/24 15:38:21;;;;;;;1.42;1.25;;;32.90;46.40;;;;;;9168869;19;21700;-68
2022/07/24 15:41:29;;;;;;;1.83;1.20;;;32.90;46.40;;;;;;9165870;19;20017;-68
2022/07/24 15:44:34;;;;;;;2.25;1.38;;;32.90;46.50;;;;;;9167898;19;20513;-68
2022/07/24 15:47:39;;;;;;;1.83;1.30;;;32.80;46.50;;;;;;9168232;19;20022;-67
2022/07/24 15:50:44;;;;;;;1.35;1.08;;;32.80;46.60;;;;;;9161324;19;20018;-68
2022/07/24 15:53:49;;;;;;;2.25;1.50;;;32.80;46.60;;;;;;9161505;19;20807;-68
2022/07/24 15:56:57;;;;;;;4.07;1.35;;;32.80;46.60;;;;;;9161177;19;20018;-67
2022/07/24 16:00:02;;;;;;;1.65;1.42;;;32.70;46.60;;;;;;9162450;19;20403;-67
2022/07/24 16:03:08;;;;;;;2.22;1.60;;;32.70;46.60;;;;;;9162334;19;20010;-67
2022/07/24 16:06:13;;;;;;;1.25;1.15;;;32.70;46.70;;;;;;9159699;19;20102;-68
2022/07/24 16:09:18;;;;;;;1.42;1.30;;;32.70;46.80;;;;;;9171558;19;20745;-68
2022/07/24 16:12:26;;;;;;;3.40;1.42;;;32.60;46.70;;;;;;9168752;19;20026;-68